Meteo Giornale » Osservazioni meteo Italia » Grosseto
ore: 20:55 - Osservazioni Meteo Grosseto
Lat. 42° 45' N Lon. 11° 4' E Alt. 5 metri s.l.m.
26 °C
Sereno
Temp. 24 Ore
20 °C
33 °C
Nord
5.5 Km/h
Dew point 23 °C
Umidità 83 %
Visibilità 10 Km
Il sole sorge alle ore 06:40
Il sole tramonta alle ore 19:50
| Data e Ora | Cielo e Fenomeni | T °C | DP °C | Um. % | Pres. hPa | Vis. km | Vento km/h | |
|---|---|---|---|---|---|---|---|---|
| Oggi h: 20:55 | Sereno | 26 | 23 | 83 | 1016 | 10 | N 5.5 | |
| Oggi h: 19:55 | Sereno | 28 | 23 | 74 | 1016 | 10 | SO 9.3 | |
| Oggi h: 18:55 | Sereno | 30 | 19 | 51 | 1016 | 10 | O/SO 20.3 | |
| Oggi h: 17:55 | Sereno | 31 | 18 | 45 | 1016 | 10 | SO 20.3 | |
| Oggi h: 16:55 | Poco Nuvoloso | 32 | 18 | 43 | 1016 | 10 | SO 18.5 | |
| Oggi h: 15:55 | Poco Nuvoloso | 33 | 17 | 38 | 1016 | 10 | SO 20.3 | |
| Oggi h: 14:55 | Poco Nuvoloso | 33 | 18 | 41 | 1017 | 10 | O/SO 18.5 | |
| Oggi h: 13:55 | Poco Nuvoloso | 33 | 19 | 43 | 1016 | 10 | O/SO 13 | |
| Oggi h: 12:55 | Poco Nuvoloso | 32 | 18 | 43 | 1017 | 10 | N 5.5 | |
| Oggi h: 11:55 | Poco Nuvoloso | 32 | 19 | 46 | 1017 | 10 | N 5.5 | |
| Oggi h: 10:55 | Poco Nuvoloso | 30 | 21 | 58 | 1017 | 10 | N 5.5 | |
| Oggi h: 09:55 | Sereno | 27 | 21 | 69 | 1017 | 10 | N 5.5 | |
| Oggi h: 08:55 | Sereno | 25 | 20 | 73 | 1017 | 10 | N 3.7 | |
| Oggi h: 07:55 | Sereno | 21 | 18 | 82 | 1016 | 10 | N 5.5 | |
| Oggi h: 06:55 | Sereno | 20 | 16 | 77 | 1016 | 10 | N 5.5 | |
| Oggi h: 05:55 | Sereno | 21 | 17 | 77 | 1016 | 10 | NE 9.3 | |
| Oggi h: 04:55 | Sereno | 21 | 17 | 77 | 1016 | 10 | N/NE 7.4 | |
| Oggi h: 03:55 | Sereno | 21 | 18 | 82 | 1016 | 10 | N/NE 7.4 | |
| Oggi h: 02:55 | Sereno | 22 | 20 | 88 | 1017 | 10 | N 7.4 | |
| Oggi h: 01:55 | Sereno | 23 | 21 | 88 | 1016 | 10 | N 5.5 | |
| Oggi h: 00:55 | Sereno | 23 | 21 | 88 | 1016 | 10 | N 5.5 | |
| Ieri h: 23:55 | Sereno | 24 | 22 | 88 | 1016 | 10 | N/NE 9.3 | |
| Ieri h: 22:55 | Sereno | 25 | 23 | 88 | 1016 | 10 | N 9.3 | |
| Ieri h: 21:55 | Sereno | 26 | 23 | 83 | 1015 | 10 | N 1.8 | |



